Dades meteomassalio
Diari Summary for Octubre 21, 2017 Units:  Metric    English   Both
« Previous Day
Next Day »
Diari Semanal Mensual Anual Personalitzat
  Maxima: Minima: Mijana:
Temperatura: -17.8 °C -13.4 °C -9.2 °C
Rosada: -17.8 °C -14.2 °C -12.2 °C
Humitat: Humidity % 49 % 72 %
Velocitat del vent: 0 km/h 0 km/h 16.7 km/h
Racha vent: 0 km/h - -
Vent:- - WSW
Pressio: 0 hPa 34601.5 hPa -
Pluja: 0 mm    
Historical Graphs
 
 
Tabular Data for Octubre 21, 2017
Time Temperature Dew Point Pressure Wind Wind Speed Wind Gust Humidity Rainfall Rate (Hourly) solar Conditions
-17.8 °C -17.8 °C 0 hPa Calm     Humidity % 0 mm SolarRadiationWatts/m^2 W/m2 Conditions
00:00 -11.9 °C -13.7 °C 34645.6 hPa Calm     81 % 0 mm 0.0 W/m2 CLR
00:05 -11.9 °C -13.7 °C 34645.6 hPa Calm     81 % 0 mm 0.0 W/m2 CLR
00:10 -11.9 °C -13.6 °C 34645.6 hPa Calm     82 % 0 mm 0.0 W/m2 CLR
00:15 -11.9 °C -13.6 °C 34645.6 hPa Calm     82 % 0 mm 0.0 W/m2 CLR
00:20 -11.9 °C -13.6 °C 34645.6 hPa Calm     82 % 0 mm 0.0 W/m2 CLR
00:25 -11.9 °C -13.6 °C 34645.6 hPa Calm     82 % 0 mm 0.0 W/m2 CLR
00:30 -11.9 °C -13.4 °C 34645.6 hPa Calm     83 % 0 mm 0.0 W/m2 CLR
00:35 -11.9 °C -13.4 °C 34645.6 hPa Calm     83 % 0 mm 0.0 W/m2 CLR
00:40 -11.9 °C -13.4 °C 34645.6 hPa Calm     83 % 0 mm 0.0 W/m2 CLR
00:45 -11.9 °C -13.4 °C 34645.6 hPa Calm     84 % 0 mm 0.0 W/m2 CLR
00:50 -11.9 °C -13.4 °C 34645.6 hPa Calm     84 % 0 mm 0.0 W/m2 CLR
00:55 -11.9 °C -13.3 °C 34645.6 hPa Calm     85 % 0 mm 0.0 W/m2 CLR
01:00 -12.2 °C -13.6 °C 34645.6 hPa Calm     85 % 0 mm 0.0 W/m2 CLR
01:05 -12.2 °C -13.6 °C 34645.6 hPa Calm     85 % 0 mm 0.0 W/m2 CLR
01:10 -12.2 °C -13.6 °C 34645.6 hPa Calm     85 % 0 mm 0.0 W/m2 CLR
01:15 -12.2 °C -13.6 °C 34645.6 hPa Calm     85 % 0 mm 0.0 W/m2 CLR
01:20 -12.2 °C -13.4 °C 34659.1 hPa Calm     86 % 0 mm 0.0 W/m2 CLR
01:25 -12.2 °C -13.4 °C 34659.1 hPa Calm     86 % 0 mm 0.0 W/m2 CLR
01:30 -12.2 °C -13.4 °C 34645.6 hPa Calm     86 % 0 mm 0.0 W/m2 CLR
01:35 -12.2 °C -13.4 °C 34659.1 hPa Calm     86 % 0 mm 0.0 W/m2 CLR
01:40 -12.2 °C -13.4 °C 34645.6 hPa Calm     87 % 0 mm 0.0 W/m2 CLR
01:46 -12.2 °C -13.4 °C 34645.6 hPa Calm     87 % 0 mm 0.0 W/m2 CLR
01:51 -12.2 °C -13.4 °C 34645.6 hPa Calm     87 % 0 mm 0.0 W/m2 CLR
01:56 -12.2 °C -13.4 °C 34645.6 hPa Calm     87 % 0 mm 0.0 W/m2 CLR
02:01 -12.2 °C -13.4 °C 34645.6 hPa Calm     86 % 0 mm 0.0 W/m2 CLR
02:06 -12.6 °C -13.7 °C 34645.6 hPa Calm     87 % 0 mm 0.0 W/m2 CLR
02:11 -12.6 °C -13.8 °C 34659.1 hPa Calm     86 % 0 mm 0.0 W/m2 CLR
02:16 -12.6 °C -13.8 °C 34645.6 hPa Calm     86 % 0 mm 0.0 W/m2 CLR
02:21 -12.6 °C -13.7 °C 34645.6 hPa Calm     87 % 0 mm 0.0 W/m2 CLR
02:26 -12.6 °C -13.7 °C 34645.6 hPa Calm     87 % 0 mm 0.0 W/m2 CLR
02:31 -12.6 °C -13.7 °C 34645.6 hPa Calm     87 % 0 mm 0.0 W/m2 CLR
02:36 -12.6 °C -13.6 °C 34645.6 hPa Calm     88 % 0 mm 0.0 W/m2 CLR
02:41 -12.6 °C -13.7 °C 34659.1 hPa Calm     87 % 0 mm 0.0 W/m2 CLR
02:46 -12.6 °C -13.7 °C 34659.1 hPa Calm     87 % 0 mm 0.0 W/m2 CLR
02:51 -12.6 °C -13.7 °C 34645.6 hPa Calm     87 % 0 mm 0.0 W/m2 CLR
02:56 -12.8 °C -14 °C 34659.1 hPa Calm     87 % 0 mm 0.0 W/m2 CLR
03:01 -12.8 °C -13.9 °C 34659.1 hPa Calm     88 % 0 mm 0.0 W/m2 CLR
03:06 -12.8 °C -14 °C 34659.1 hPa Calm     87 % 0 mm 0.0 W/m2 CLR
03:11 -12.8 °C -13.9 °C 34645.6 hPa Calm     88 % 0 mm 0.0 W/m2 CLR
03:16 -12.8 °C -13.9 °C 34645.6 hPa Calm     88 % 0 mm 0.0 W/m2 CLR
03:21 -12.6 °C -13.6 °C 34645.6 hPa Calm     88 % 0 mm 0.0 W/m2 CLR
03:26 -12.6 °C -13.6 °C 34645.6 hPa Calm     88 % 0 mm 0.0 W/m2 CLR
03:31 -12.6 °C -13.6 °C 34645.6 hPa Calm     88 % 0 mm 0.0 W/m2 CLR
03:36 -12.8 °C -13.9 °C 34645.6 hPa Calm     88 % 0 mm 0.0 W/m2 CLR
03:41 -12.6 °C -13.5 °C 34645.6 hPa Calm     89 % 0 mm 0.0 W/m2 CLR
03:46 -12.6 °C -13.5 °C 34645.6 hPa Calm     89 % 0 mm 0.0 W/m2 CLR
03:51 -12.6 °C -13.5 °C 34645.6 hPa Calm     89 % 0 mm 0.0 W/m2 CLR
03:56 -12.6 °C -13.5 °C 34645.6 hPa Calm     89 % 0 mm 0.0 W/m2 CLR
04:01 -12.6 °C -13.5 °C 34645.6 hPa Calm     89 % 0 mm 0.0 W/m2 CLR
04:06 -12.6 °C -13.5 °C 34645.6 hPa Calm     89 % 0 mm 0.0 W/m2 CLR
04:11 -12.8 °C -13.8 °C 34635.4 hPa Calm     89 % 0 mm 0.0 W/m2 CLR
04:16 -12.8 °C -13.8 °C 34645.6 hPa Calm     89 % 0 mm 0.0 W/m2 CLR
04:21 -12.8 °C -13.8 °C 34635.4 hPa Calm     89 % 0 mm 0.0 W/m2 CLR
04:26 -12.8 °C -13.7 °C 34635.4 hPa Calm     90 % 0 mm 0.0 W/m2 CLR
04:31 -12.8 °C -13.7 °C 34635.4 hPa Calm     90 % 0 mm 0.0 W/m2 CLR
04:36 -12.8 °C -13.7 °C 34635.4 hPa Calm     90 % 0 mm 0.0 W/m2 CLR
04:41 -12.8 °C -13.7 °C 34635.4 hPa Calm     90 % 0 mm 0.0 W/m2 CLR
04:46 -12.8 °C -13.7 °C 34635.4 hPa Calm     90 % 0 mm 0.0 W/m2 CLR
04:51 -12.8 °C -13.7 °C 34635.4 hPa Calm     90 % 0 mm 0.0 W/m2 CLR
04:56 -12.8 °C -13.7 °C 34635.4 hPa Calm     90 % 0 mm 0.0 W/m2 CLR
05:01 -12.8 °C -13.7 °C 34625.2 hPa Calm     90 % 0 mm 0.0 W/m2 CLR
05:06 -12.8 °C -13.7 °C 34625.2 hPa Calm     90 % 0 mm 0.0 W/m2 CLR
05:13 -12.8 °C -13.7 °C 34635.4 hPa Calm     90 % 0 mm 0.0 W/m2 CLR
05:20 -12.8 °C -13.7 °C 34625.2 hPa Calm     90 % 0 mm 0.0 W/m2 CLR
05:21 -12.8 °C -13.7 °C 34625.2 hPa Calm     90 % 0 mm 0.0 W/m2 CLR
05:22 -12.8 °C -13.6 °C 34625.2 hPa Calm     91 % 0 mm 0.0 W/m2 CLR
05:25 -12.8 °C -13.7 °C 34635.4 hPa Calm     90 % 0 mm 0.0 W/m2 CLR
05:27 -13.2 °C -14 °C 34635.4 hPa Calm     90 % 0 mm 0.0 W/m2 CLR
05:28 -13.2 °C -14 °C 34635.4 hPa Calm     90 % 0 mm 0.0 W/m2 CLR
05:29 -13.2 °C -14 °C 34635.4 hPa Calm     90 % 0 mm 0.0 W/m2 CLR
05:34 -13.2 °C -14 °C 34625.2 hPa Calm     90 % 0 mm 0.0 W/m2 CLR
05:39 -13.2 °C -14 °C 34635.4 hPa Calm     90 % 0 mm 0.0 W/m2 CLR
05:44 -13.2 °C -14 °C 34635.4 hPa Calm     90 % 0 mm 0.0 W/m2 CLR
05:49 -13.2 °C -13.9 °C 34635.4 hPa Calm     91 % 0 mm 0.0 W/m2 CLR
05:54 -13.2 °C -13.9 °C 34635.4 hPa Calm     91 % 0 mm 0.0 W/m2 CLR
05:59 -13.2 °C -13.9 °C 34635.4 hPa Calm     91 % 0 mm 0.0 W/m2 CLR
06:04 -13.2 °C -13.9 °C 34635.4 hPa Calm     91 % 0 mm 0.0 W/m2 CLR
06:09 -13.4 °C -14.2 °C 34635.4 hPa Calm     91 % 0 mm 0.0 W/m2 CLR
06:14 -13.4 °C -14.2 °C 34635.4 hPa Calm     91 % 0 mm 0.0 W/m2 CLR
06:19 -13.4 °C -14.2 °C 34645.6 hPa Calm     91 % 0 mm 0.0 W/m2 CLR
06:24 -13.4 °C -14.2 °C 34645.6 hPa Calm     91 % 0 mm 0.0 W/m2 CLR
06:29 -13.2 °C -13.9 °C 34645.6 hPa Calm     91 % 0 mm 0.0 W/m2 CLR
06:34 -13.2 °C -13.9 °C 34645.6 hPa Calm     91 % 0 mm 0.0 W/m2 CLR
06:39 -13.2 °C -13.9 °C 34645.6 hPa Calm     91 % 0 mm 0.0 W/m2 CLR
06:44 -13.2 °C -13.9 °C 34645.6 hPa Calm     91 % 0 mm 0.0 W/m2 CLR
06:49 -13.2 °C -13.9 °C 34645.6 hPa Calm     91 % 0 mm 0.0 W/m2 CLR
06:54 -13.2 °C -13.8 °C 34645.6 hPa Calm     92 % 0 mm 0.0 W/m2 CLR
06:59 -13.2 °C -13.9 °C 34659.1 hPa Calm     91 % 0 mm 0.0 W/m2 CLR
07:04 -13.2 °C -13.9 °C 34659.1 hPa Calm     91 % 0 mm 0.0 W/m2 CLR
07:10 -13.2 °C -13.9 °C 34659.1 hPa Calm     91 % 0 mm 0.0 W/m2 CLR
07:15 -13.2 °C -13.9 °C 34659.1 hPa Calm     91 % 0 mm 0.0 W/m2 CLR
07:20 -13.2 °C -13.9 °C 34659.1 hPa Calm     91 % 0 mm 0.0 W/m2 CLR
07:25 -13.2 °C -13.8 °C 34659.1 hPa Calm     92 % 0 mm 0.0 W/m2 CLR
07:30 -13.2 °C -13.9 °C 34659.1 hPa Calm     91 % 0 mm 0.0 W/m2 CLR
07:35 -13.2 °C -13.9 °C 34659.1 hPa Calm     91 % 0 mm 0.0 W/m2 CLR
07:40 -13.2 °C -13.9 °C 34659.1 hPa Calm     91 % 0 mm 0.0 W/m2 CLR
07:45 -13.4 °C -14.2 °C 34659.1 hPa Calm     91 % 0 mm 0.0 W/m2 CLR
07:50 -13.4 °C -14.2 °C 34659.1 hPa Calm     91 % 0 mm 0.0 W/m2 CLR
07:55 -13.4 °C -14.1 °C 34669.3 hPa Calm     92 % 0 mm 0.0 W/m2 CLR
08:00 -13.4 °C -14.1 °C 34669.3 hPa Calm     92 % 0 mm 0.0 W/m2 CLR
08:05 -13.4 °C -14.2 °C 34669.3 hPa Calm     91 % 0 mm 0.0 W/m2 CLR
08:11 -13.2 °C -13.9 °C 34669.3 hPa Calm     91 % 0 mm 0.0 W/m2 OVC
08:16 -13.2 °C -13.9 °C 34669.3 hPa Calm     91 % 0 mm 0.0 W/m2 OVC
08:21 -13.2 °C -13.9 °C 34669.3 hPa Calm     91 % 0 mm 5.0 W/m2 OVC
08:26 -13.2 °C -13.8 °C 34669.3 hPa Calm     92 % 0 mm 7.0 W/m2 BKN
08:31 -13.2 °C -13.8 °C 34669.3 hPa Calm     92 % 0 mm 11.0 W/m2 BKN
08:36 -13.2 °C -13.8 °C 34682.8 hPa Calm     92 % 0 mm 12.0 W/m2 BKN
08:41 -13.2 °C -13.8 °C 34682.8 hPa Calm     92 % 0 mm 14.0 W/m2 BKN
08:46 -13.2 °C -13.9 °C 34682.8 hPa Calm     91 % 0 mm 16.0 W/m2 BKN
08:51 -13.2 °C -13.9 °C 34669.3 hPa Calm     91 % 0 mm 18.0 W/m2 BKN
08:56 -13.2 °C -13.8 °C 34682.8 hPa Calm     92 % 0 mm 33.0 W/m2 BKN
09:01 -13.2 °C -13.8 °C 34682.8 hPa Calm     92 % 0 mm 47.0 W/m2 BKN
09:06 -13.2 °C -13.8 °C 34682.8 hPa Calm     92 % 0 mm 60.0 W/m2 SCT
09:11 -13.2 °C -13.9 °C 34682.8 hPa Calm     91 % 0 mm 72.0 W/m2 SCT
09:16 -12.8 °C -13.6 °C 34682.8 hPa Calm     91 % 0 mm 84.0 W/m2 FEW
09:21 -12.8 °C -13.7 °C 34682.8 hPa Calm     90 % 0 mm 91.0 W/m2 FEW
09:26 -12.6 °C -13.4 °C 34682.8 hPa Calm     90 % 0 mm 91.0 W/m2 CLR
09:31 -12.6 °C -13.5 °C 34682.8 hPa Calm     89 % 0 mm 105.0 W/m2 CLR
09:36 -12.6 °C -13.6 °C 34682.8 hPa Calm     88 % 0 mm 132.0 W/m2 CLR
09:41 -12.2 °C -13.3 °C 34682.8 hPa Calm     88 % 0 mm 128.0 W/m2 CLR
09:46 -11.9 °C -13.1 °C 34682.8 hPa Calm     87 % 0 mm 179.0 W/m2 CLR
09:51 -11.9 °C -13.2 °C 34682.8 hPa Calm     86 % 0 mm 200.0 W/m2 CLR
09:56 -11.6 °C -13.1 °C 34682.8 hPa Calm     84 % 0 mm 223.0 W/m2 CLR
10:01 -11.6 °C -13.2 °C 34682.8 hPa Calm     82 % 0 mm 239.0 W/m2 CLR
10:06 -11.6 °C -13.4 °C 34682.8 hPa Calm     81 % 0 mm 251.0 W/m2 CLR
10:11 -11.3 °C -13.2 °C 34682.8 hPa Calm     79 % 0 mm 265.0 W/m2 CLR
10:16 -11 °C -13.1 °C 34693 hPa Calm     78 % 0 mm 283.0 W/m2 CLR
10:21 -10.7 °C -12.9 °C 34682.8 hPa Calm     76 % 0 mm 294.0 W/m2 CLR
10:26 -10.7 °C -13.3 °C 34682.8 hPa Calm     73 % 0 mm 308.0 W/m2 CLR
10:31 -10.4 °C -13.2 °C 34682.8 hPa Calm     71 % 0 mm 320.0 W/m2 CLR
10:36 -9.4 °C -12.6 °C 34682.8 hPa Calm     69 % 0 mm 332.0 W/m2 CLR
10:41 -9.4 °C -12.6 °C 34682.8 hPa SW 11.9 km/h 11.9 km/h 69 % 0 mm 348.0 W/m2 CLR
10:46 -9.4 °C -12.8 °C 34682.8 hPa SSW 26.9 km/h 26.9 km/h 67 % 0 mm 359.0 W/m2 CLR
10:51 -9.1 °C -12.8 °C 34682.8 hPa SSW 26.9 km/h 26.9 km/h 65 % 0 mm 371.0 W/m2 CLR
10:56 -8.8 °C -12.6 °C 34682.8 hPa SW 29.8 km/h 29.8 km/h 64 % 0 mm 380.0 W/m2 CLR
11:01 -7.6 °C -11.4 °C 34682.8 hPa WSW 18.2 km/h 18.2 km/h 64 % 0 mm 396.0 W/m2 CLR
11:06 -7 °C -11 °C 34682.8 hPa SSW 23.8 km/h 23.8 km/h 63 % 0 mm 406.0 W/m2 CLR
11:11 -6.7 °C -10.7 °C 34682.8 hPa SW 29.8 km/h 29.8 km/h 63 % 0 mm 418.0 W/m2 CLR
11:16 -6.7 °C -10.7 °C 34682.8 hPa SSW 23.8 km/h 23.8 km/h 63 % 0 mm 427.0 W/m2 CLR
11:21 -6.3 °C -10.6 °C 34682.8 hPa SW 33.6 km/h 34.4 km/h 62 % 0 mm 439.0 W/m2 CLR
11:26 -6.3 °C -10.4 °C 34682.8 hPa SW 33.6 km/h 33.6 km/h 63 % 0 mm 452.0 W/m2 CLR
11:31 -6.1 °C -10.2 °C 34682.8 hPa SW 29.8 km/h 29.8 km/h 62 % 0 mm 461.0 W/m2 CLR
11:36 -6.1 °C -10.4 °C 34682.8 hPa SW 26.9 km/h 26.9 km/h 61 % 0 mm 469.0 W/m2 CLR
11:41 -6.1 °C -10.2 °C 34682.8 hPa SW 26.9 km/h 26.9 km/h 62 % 0 mm 480.0 W/m2 CLR
11:46 -6.1 °C -10.5 °C 34682.8 hPa SW 29.8 km/h 29.8 km/h 60 % 0 mm 490.0 W/m2 CLR
11:51 -6.1 °C -10.5 °C 34682.8 hPa WSW 26.9 km/h 26.9 km/h 60 % 0 mm 503.0 W/m2 CLR
11:56 -6.1 °C -10.7 °C 34669.3 hPa SSW 26.9 km/h 26.9 km/h 59 % 0 mm 517.0 W/m2 CLR
12:01 -5.7 °C -10.2 °C 34669.3 hPa South 15 km/h 15 km/h 60 % 0 mm 536.0 W/m2 CLR
12:06 -5.7 °C -10.2 °C 34669.3 hPa SW 20.9 km/h 20.9 km/h 60 % 0 mm 527.0 W/m2 CLR
12:11 -5.4 °C -10.1 °C 34669.3 hPa West 26.9 km/h 26.9 km/h 59 % 0 mm 536.0 W/m2 CLR
12:16 -5.4 °C -10.1 °C 34669.3 hPa SW 44.7 km/h 44.7 km/h 59 % 0 mm 543.0 W/m2 CLR
12:21 -5.4 °C -10.1 °C 34669.3 hPa SW 46.7 km/h 46.7 km/h 59 % 0 mm 550.0 W/m2 CLR
12:26 -5.4 °C -10.1 °C 34669.3 hPa WSW 35.7 km/h 35.7 km/h 59 % 0 mm 561.0 W/m2 CLR
12:31 -5.1 °C -9.9 °C 34669.3 hPa SW 38.8 km/h 38.8 km/h 58 % 0 mm 578.0 W/m2 CLR
12:36 -4.8 °C -9.7 °C 34669.3 hPa SW 50.7 km/h 50.7 km/h 58 % 0 mm 584.0 W/m2 CLR
12:41 -4.8 °C -9.8 °C 34669.3 hPa SW 44.7 km/h 44.7 km/h 57 % 0 mm 589.0 W/m2 CLR
12:46 -4.8 °C -9.7 °C 34669.3 hPa SW 47.6 km/h 47.6 km/h 58 % 0 mm 594.0 W/m2 CLR
12:51 -4.5 °C -9.6 °C 34659.1 hPa SW 17.9 km/h 17.9 km/h 57 % 0 mm 599.0 W/m2 CLR
12:56 -4.5 °C -9.6 °C 34659.1 hPa WSW 41.4 km/h 41.4 km/h 57 % 0 mm 566.0 W/m2 CLR
13:01 -4.5 °C -9.6 °C 34669.3 hPa SW 44.7 km/h 44.7 km/h 57 % 0 mm 582.0 W/m2 CLR
13:06 -4.5 °C -9.6 °C 34669.3 hPa SW 38.8 km/h 38.8 km/h 57 % 0 mm 524.0 W/m2 CLR
13:11 -4.5 °C -9.7 °C 34669.3 hPa SSW 53.6 km/h 53.6 km/h 56 % 0 mm 501.0 W/m2 CLR
13:16 -4.5 °C -9.6 °C 34659.1 hPa SW 41.7 km/h 41.7 km/h 57 % 0 mm 608.0 W/m2 CLR
13:26 -4.5 °C -9.7 °C 34659.1 hPa WSW 41.7 km/h 41.7 km/h 56 % 0 mm 605.0 W/m2 CLR
13:31 -4.5 °C -9.8 °C 34645.6 hPa SW 29.8 km/h 29.8 km/h 55 % 0 mm 606.0 W/m2 CLR
13:36 -4.5 °C -9.8 °C 34645.6 hPa SW 36.2 km/h 36.2 km/h 55 % 0 mm 606.0 W/m2 CLR
13:41 -4.2 °C -9.9 °C 34645.6 hPa West 47.6 km/h 47.6 km/h 53 % 0 mm 608.0 W/m2 CLR
13:46 -4.2 °C -9.9 °C 34645.6 hPa SW 38.8 km/h 38.8 km/h 53 % 0 mm 608.0 W/m2 CLR
13:51 -3.9 °C -9.6 °C 34635.4 hPa SSW 29.8 km/h 29.8 km/h 53 % 0 mm 612.0 W/m2 CLR
13:56 -4.2 °C -10.1 °C 34635.4 hPa SW 41.7 km/h 41.7 km/h 52 % 0 mm 612.0 W/m2 CLR
14:01 -4.2 °C -10.1 °C 34635.4 hPa WSW 35.7 km/h 35.7 km/h 52 % 0 mm 613.0 W/m2 CLR
14:06 -4.2 °C -10.2 °C 34635.4 hPa West 29.8 km/h 29.8 km/h 51 % 0 mm 621.0 W/m2 CLR
14:11 -4.2 °C -10.1 °C 34625.2 hPa West 35.7 km/h 35.7 km/h 52 % 0 mm 628.0 W/m2 CLR
14:17 -4.2 °C -10.1 °C 34625.2 hPa WNW 35.7 km/h 35.7 km/h 52 % 0 mm 640.0 W/m2 CLR
14:22 -4.2 °C -10.2 °C 34625.2 hPa West 20.9 km/h 20.9 km/h 51 % 0 mm 636.0 W/m2 CLR
14:27 -4.2 °C -10.1 °C 34625.2 hPa SW 11.9 km/h 11.9 km/h 52 % 0 mm 657.0 W/m2 CLR
14:32 -4.2 °C -10.2 °C 34625.2 hPa West 18.2 km/h 18.2 km/h 51 % 0 mm 670.0 W/m2 CLR
14:37 -3.9 °C -9.9 °C 34611.7 hPa SW 20.9 km/h 20.9 km/h 51 % 0 mm 694.0 W/m2 CLR
14:42 -4.2 °C -10.1 °C 34611.7 hPa NW 20.8 km/h 20.8 km/h 52 % 0 mm 642.0 W/m2 CLR
14:47 -4.2 °C -10.2 °C 34611.7 hPa WNW 29.8 km/h 29.8 km/h 51 % 0 mm 524.0 W/m2 CLR
14:52 -4.2 °C -10.1 °C 34611.7 hPa WNW 15 km/h 15 km/h 52 % 0 mm 485.0 W/m2 CLR
14:57 -4.2 °C -10.1 °C 34611.7 hPa NW 20.9 km/h 20.9 km/h 52 % 0 mm 675.0 W/m2 CLR
15:02 -4.2 °C -10.1 °C 34611.7 hPa West 2.6 km/h   52 % 0 mm 621.0 W/m2 CLR
15:07 -4.5 °C -10.5 °C 34611.7 hPa NW 28.5 km/h 28.5 km/h 51 % 0 mm 605.0 W/m2 CLR
15:12 -4.2 °C -10.2 °C 34611.7 hPa West 29.8 km/h 29.8 km/h 51 % 0 mm 503.0 W/m2 CLR
15:17 -4.2 °C -10.2 °C 34611.7 hPa West 23.3 km/h 23.3 km/h 51 % 0 mm 478.0 W/m2 CLR
15:22 -4.2 °C -10.2 °C 34611.7 hPa West 15 km/h 15 km/h 51 % 0 mm 642.0 W/m2 CLR
15:27 -4.2 °C -10.4 °C 34601.5 hPa West 38.8 km/h 38.8 km/h 50 % 0 mm 325.0 W/m2 CLR
15:32 -4.2 °C -10.2 °C 34611.7 hPa WSW 41.7 km/h 41.7 km/h 51 % 0 mm 596.0 W/m2 CLR
15:37 -3.9 °C -9.9 °C 34601.5 hPa West 15 km/h 15 km/h 51 % 0 mm 404.0 W/m2 CLR
15:42 -4.5 °C -10.5 °C 34601.5 hPa WNW 36.2 km/h 36.2 km/h 51 % 0 mm 269.0 W/m2 CLR
15:47 -4.5 °C -10.3 °C 34601.5 hPa West 20.9 km/h 20.9 km/h 52 % 0 mm 496.0 W/m2 CLR
15:52 -4.5 °C -10.5 °C 34601.5 hPa WSW 23.3 km/h 23.3 km/h 51 % 0 mm 417.0 W/m2 CLR
15:57 -4.5 °C -10.5 °C 34601.5 hPa West 20.9 km/h 20.9 km/h 51 % 0 mm 512.0 W/m2 CLR
16:02 -4.2 °C -10.2 °C 34601.5 hPa West 26.9 km/h 26.9 km/h 51 % 0 mm 457.0 W/m2 CLR
16:07 -4.2 °C -10.2 °C 34601.5 hPa West 17.9 km/h 17.9 km/h 51 % 0 mm 436.0 W/m2 CLR
16:12 -4.2 °C -10.2 °C 34601.5 hPa West 25.9 km/h 25.9 km/h 51 % 0 mm 485.0 W/m2 CLR
16:17 -3.9 °C -10.1 °C 34601.5 hPa WSW 29.8 km/h 29.8 km/h 50 % 0 mm 334.0 W/m2 CLR
16:27 -3.9 °C -10.2 °C 34601.5 hPa SW 15 km/h 15 km/h 49 % 0 mm 211.0 W/m2 CLR
16:32 -4.2 °C -10.4 °C 34601.5 hPa WSW 26.9 km/h 26.9 km/h 50 % 0 mm 200.0 W/m2 CLR
16:37 -4.2 °C -10.4 °C 34601.5 hPa West 17.9 km/h 17.9 km/h 50 % 0 mm 218.0 W/m2 CLR
16:42 -4.2 °C -10.4 °C 34601.5 hPa West 20.9 km/h 20.9 km/h 50 % 0 mm 209.0 W/m2 CLR
16:47 -4.5 °C -10.7 °C 34601.5 hPa Calm     50 % 0 mm 209.0 W/m2 CLR
16:52 -4.5 °C -10.7 °C 34601.5 hPa West 26.9 km/h 26.9 km/h 50 % 0 mm 211.0 W/m2 CLR
16:57 -4.5 °C -10.7 °C 34601.5 hPa WNW 26.9 km/h 26.9 km/h 50 % 0 mm 193.0 W/m2 CLR
16:58 -4.5 °C -10.7 °C 34601.5 hPa West 29.8 km/h 29.8 km/h 50 % 0 mm 188.0 W/m2 CLR
17:03 -4.5 °C -10.7 °C 34601.5 hPa West 23.8 km/h 23.8 km/h 50 % 0 mm 178.0 W/m2 CLR
17:08 -4.5 °C -10.7 °C 34601.5 hPa West 20.9 km/h 20.9 km/h 50 % 0 mm 172.0 W/m2 CLR
17:13 -4.5 °C -10.7 °C 34601.5 hPa West 26.9 km/h 26.9 km/h 50 % 0 mm 162.0 W/m2 CLR
17:18 -4.5 °C -10.7 °C 34601.5 hPa West 29.8 km/h 29.8 km/h 50 % 0 mm 149.0 W/m2 CLR
17:23 -4.8 °C -10.9 °C 34601.5 hPa West 26.9 km/h 26.9 km/h 50 % 0 mm 130.0 W/m2 CLR
17:28 -4.8 °C -10.9 °C 34601.5 hPa WSW 18.2 km/h 18.2 km/h 50 % 0 mm 123.0 W/m2 CLR
17:33 -4.8 °C -10.8 °C 34601.5 hPa WSW 6 km/h   51 % 0 mm 120.0 W/m2 CLR
17:38 -4.8 °C -10.8 °C 34601.5 hPa West 26.9 km/h 26.9 km/h 51 % 0 mm 132.0 W/m2 CLR
17:43 -4.8 °C -10.6 °C 34601.5 hPa Calm     52 % 0 mm 137.0 W/m2 CLR
17:48 -4.8 °C -10.6 °C 34601.5 hPa Calm     52 % 0 mm 174.0 W/m2 CLR
17:53 -4.8 °C -10.8 °C 34601.5 hPa West 11.9 km/h 11.9 km/h 51 % 0 mm 146.0 W/m2 CLR
17:58 -4.8 °C -10.8 °C 34601.5 hPa West 25.9 km/h 25.9 km/h 51 % 0 mm 118.0 W/m2 CLR
18:03 -4.8 °C -10.8 °C 34601.5 hPa West 31.1 km/h 31.1 km/h 51 % 0 mm 132.0 W/m2 CLR
18:08 -4.8 °C -10.6 °C 34611.7 hPa WNW 29.8 km/h 29.8 km/h 52 % 0 mm 79.0 W/m2 CLR
18:14 -4.8 °C -10.6 °C 34611.7 hPa West 20.9 km/h 20.9 km/h 52 % 0 mm 63.0 W/m2 FEW
18:18 -4.8 °C -10.6 °C 34611.7 hPa West 20.9 km/h 20.9 km/h 52 % 0 mm 51.0 W/m2 SCT
18:23 -5.1 °C -10.7 °C 34611.7 hPa WNW 32.8 km/h 32.8 km/h 53 % 0 mm 44.0 W/m2 BKN
18:29 -5.1 °C -10.6 °C 34611.7 hPa West 28.5 km/h 28.5 km/h 54 % 0 mm 33.0 W/m2 BKN
18:34 -5.1 °C -10.4 °C 34611.7 hPa West 44.7 km/h 44.7 km/h 55 % 0 mm 32.0 W/m2 BKN
18:39 -5.4 °C -10.2 °C 34625.2 hPa West 32.8 km/h 32.8 km/h 58 % 0 mm 32.0 W/m2 BKN
18:44 -5.4 °C -9.8 °C 34625.2 hPa WSW 53.6 km/h 53.6 km/h 61 % 0 mm 26.0 W/m2 BKN
18:49 -5.7 °C -9.7 °C 34635.4 hPa WSW 50.7 km/h 50.7 km/h 64 % 0 mm 23.0 W/m2 BKN
18:54 -6.1 °C -9.8 °C 34635.4 hPa SW 50.7 km/h 50.7 km/h 65 % 0 mm 16.0 W/m2 BKN
18:59 -6.3 °C -10 °C 34645.6 hPa WSW 57 km/h 57 km/h 66 % 0 mm 12.0 W/m2 BKN
19:04 -6.7 °C -10.2 °C 34645.6 hPa SW 62.6 km/h 62.6 km/h 67 % 0 mm 7.0 W/m2 BKN
19:09 -6.7 °C -9.9 °C 34645.6 hPa SW 41.7 km/h 41.7 km/h 69 % 0 mm 0.0 W/m2 OVC
19:14 -7 °C -10.3 °C 34659.1 hPa WSW 69.8 km/h 69.8 km/h 68 % 0 mm 0.0 W/m2 OVC
19:19 -7.3 °C -10.5 °C 34659.1 hPa WSW 50.7 km/h 50.7 km/h 69 % 0 mm 0.0 W/m2 OVC
19:24 -7.3 °C -10.7 °C 34669.3 hPa WSW 68.6 km/h 68.6 km/h 68 % 0 mm 0.0 W/m2 CLR
19:29 -7.6 °C -10.9 °C 34682.8 hPa WSW 64.7 km/h 64.7 km/h 68 % 0 mm 0.0 W/m2 CLR
19:34 -7.6 °C -10.8 °C 34682.8 hPa WSW 50.7 km/h 50.7 km/h 69 % 0 mm 0.0 W/m2 CLR
19:39 -7.6 °C -10.8 °C 34682.8 hPa SW 38.8 km/h 38.8 km/h 69 % 0 mm 0.0 W/m2 CLR
19:44 -7.9 °C -11.1 °C 34682.8 hPa SSW 35.7 km/h 35.7 km/h 69 % 0 mm 0.0 W/m2 CLR
19:49 -7.9 °C -11.1 °C 34693 hPa SW 38.8 km/h 38.8 km/h 69 % 0 mm 0.0 W/m2 CLR
19:50 -7.9 °C -11.2 °C 34693 hPa SW 44.7 km/h 44.7 km/h 68 % 0 mm 0.0 W/m2 CLR
19:55 -7.9 °C -11.2 °C 34693 hPa WSW 50.7 km/h 50.7 km/h 68 % 0 mm 0.0 W/m2 CLR
20:00 -7.9 °C -11.2 °C 34693 hPa South 32.8 km/h 32.8 km/h 68 % 0 mm 0.0 W/m2 CLR
20:05 -8.2 °C -11.5 °C 34693 hPa SSW 38.8 km/h 38.8 km/h 68 % 0 mm 0.0 W/m2 CLR
20:11 -8.2 °C -11.5 °C 34703.1 hPa SW 47.6 km/h 47.6 km/h 68 % 0 mm 0.0 W/m2 CLR
20:16 -8.2 °C -11.5 °C 34703.1 hPa South 41.4 km/h 41.4 km/h 68 % 0 mm 0.0 W/m2 CLR
20:21 -8.2 °C -11.6 °C 34703.1 hPa WSW 44.7 km/h 44.7 km/h 67 % 0 mm 0.0 W/m2 CLR
20:26 -8.5 °C -11.9 °C 34716.7 hPa SW 32.8 km/h 32.8 km/h 67 % 0 mm 0.0 W/m2 CLR
20:31 -8.5 °C -11.9 °C 34716.7 hPa SSW 29.8 km/h 29.8 km/h 67 % 0 mm 0.0 W/m2 CLR
20:36 -8.5 °C -11.9 °C 34716.7 hPa SSW 35.7 km/h 35.7 km/h 67 % 0 mm 0.0 W/m2 CLR
20:41 -8.5 °C -11.9 °C 34726.8 hPa SW 23.8 km/h 23.8 km/h 67 % 0 mm 0.0 W/m2 CLR
20:46 -8.5 °C -11.9 °C 34726.8 hPa South 15.6 km/h 15.6 km/h 67 % 0 mm 0.0 W/m2 CLR
20:51 -8.5 °C -11.9 °C 34726.8 hPa South 9 km/h   67 % 0 mm 0.0 W/m2 CLR
20:56 -8.5 °C -12.1 °C 34740.4 hPa Calm     66 % 0 mm 0.0 W/m2 CLR
21:01 -8.5 °C -12.1 °C 34740.4 hPa Calm     66 % 0 mm 0.0 W/m2 CLR
21:06 -8.5 °C -12.1 °C 34740.4 hPa SW 29.8 km/h 29.8 km/h 66 % 0 mm 0.0 W/m2 CLR
21:11 -8.5 °C -12.2 °C 34740.4 hPa SSW 38.8 km/h 38.8 km/h 65 % 0 mm 0.0 W/m2 CLR
21:16 -8.5 °C -12.2 °C 34750.5 hPa South 29.8 km/h 29.8 km/h 65 % 0 mm 0.0 W/m2 CLR
21:21 -8.5 °C -12.2 °C 34750.5 hPa SW 23.8 km/h 23.8 km/h 65 % 0 mm 0.0 W/m2 CLR
21:26 -8.5 °C -12.3 °C 34750.5 hPa SSW 29.8 km/h 29.8 km/h 64 % 0 mm 0.0 W/m2 CLR
21:31 -8.5 °C -12.3 °C 34750.5 hPa SSW 10.3 km/h 10.3 km/h 64 % 0 mm 0.0 W/m2 CLR
21:36 -8.5 °C -12.3 °C 34760.7 hPa SSW 17.9 km/h 17.9 km/h 64 % 0 mm 0.0 W/m2 CLR
21:41 -8.5 °C -12.4 °C 34760.7 hPa SSW 9 km/h 9 km/h 63 % 0 mm 0.0 W/m2 CLR
21:46 -8.5 °C -12.4 °C 34760.7 hPa SSW 11.9 km/h 11.9 km/h 63 % 0 mm 0.0 W/m2 CLR
21:51 -8.5 °C -12.4 °C 34760.7 hPa SW 29.8 km/h 29.8 km/h 63 % 0 mm 0.0 W/m2 CLR
21:56 -8.5 °C -12.4 °C 34760.7 hPa SW 26.9 km/h 26.9 km/h 63 % 0 mm 0.0 W/m2 CLR
22:01 -8.8 °C -12.7 °C 34760.7 hPa SW 29.8 km/h 29.8 km/h 63 % 0 mm 0.0 W/m2 CLR
22:06 -8.8 °C -12.7 °C 34760.7 hPa SW 20.9 km/h 20.9 km/h 63 % 0 mm 0.0 W/m2 CLR
22:11 -8.8 °C -12.7 °C 34774.2 hPa SSW 29.8 km/h 29.8 km/h 63 % 0 mm 0.0 W/m2 CLR
22:16 -8.8 °C -12.7 °C 34774.2 hPa SSW 29.8 km/h 29.8 km/h 63 % 0 mm 0.0 W/m2 CLR
22:21 -8.8 °C -12.7 °C 34774.2 hPa SW 50.7 km/h 50.7 km/h 63 % 0 mm 0.0 W/m2 CLR
22:26 -8.8 °C -12.7 °C 34784.4 hPa SW 38.8 km/h 38.8 km/h 63 % 0 mm 0.0 W/m2 CLR
22:31 -8.8 °C -12.7 °C 34784.4 hPa SSW 47.6 km/h 47.6 km/h 63 % 0 mm 0.0 W/m2 CLR
22:36 -8.8 °C -12.6 °C 34784.4 hPa SSW 41.7 km/h 41.7 km/h 64 % 0 mm 0.0 W/m2 CLR
22:41 -8.8 °C -12.6 °C 34784.4 hPa SSW 41.7 km/h 41.7 km/h 64 % 0 mm 0.0 W/m2 CLR
22:46 -8.8 °C -12.6 °C 34784.4 hPa SSW 47.6 km/h 47.6 km/h 64 % 0 mm 0.0 W/m2 CLR
22:51 -8.8 °C -12.6 °C 34784.4 hPa SSW 44.7 km/h 44.7 km/h 64 % 0 mm 0.0 W/m2 CLR
22:56 -8.8 °C -12.7 °C 34784.4 hPa SW 33.6 km/h 33.6 km/h 63 % 0 mm 0.0 W/m2 CLR
23:01 -8.8 °C -12.7 °C 34797.9 hPa South 44.7 km/h 44.7 km/h 63 % 0 mm 0.0 W/m2 CLR
23:06 -8.8 °C -12.7 °C 34797.9 hPa SW 44.1 km/h 44.1 km/h 63 % 0 mm 0.0 W/m2 CLR
23:11 -8.8 °C -12.7 °C 34797.9 hPa SSW 26.9 km/h 26.9 km/h 63 % 0 mm 0.0 W/m2 CLR
23:13 -8.8 °C -12.7 °C 34797.9 hPa SSW 29.8 km/h 29.8 km/h 63 % 0 mm 0.0 W/m2 CLR
23:18 -8.8 °C -12.7 °C 34808.1 hPa SSW 26.9 km/h 26.9 km/h 63 % 0 mm 0.0 W/m2 CLR
23:23 -9.1 °C -13 °C 34808.1 hPa SSW 23.8 km/h 23.8 km/h 63 % 0 mm 0.0 W/m2 CLR
23:28 -9.1 °C -13 °C 34808.1 hPa South 32.8 km/h 32.8 km/h 63 % 0 mm 0.0 W/m2 CLR
23:33 -9.1 °C -13 °C 34808.1 hPa SSW 29.8 km/h 29.8 km/h 63 % 0 mm 0.0 W/m2 CLR
23:38 -9.1 °C -13 °C 34808.1 hPa SSW 33.6 km/h 33.6 km/h 63 % 0 mm 0.0 W/m2 CLR
23:43 -9.1 °C -13 °C 34808.1 hPa SSW 29.8 km/h 29.8 km/h 63 % 0 mm 0.0 W/m2 CLR
23:48 -9.1 °C -13 °C 34808.1 hPa SSW 20.9 km/h 20.9 km/h 63 % 0 mm 0.0 W/m2 CLR
23:53 -9.1 °C -13 °C 34818.2 hPa SSW 23.8 km/h 23.8 km/h 63 % 0 mm 0.0 W/m2 CLR
23:58 -9.1 °C -13 °C 34818.2 hPa SSW 29.8 km/h 29.8 km/h 63 % 0 mm 0.0 W/m2 CLR
Lo Temps de Massalio
Compliments of Weather Underground - 1.25 mb